sensor_id;sensor_type;location;lat;lon;timestamp;P1;durP1;ratioP1;P2;durP2;ratioP2
2111;SDS011;1062;52.538;13.400;2023-11-22T00:02:10;8.87;;;5.70;;
2111;SDS011;1062;52.538;13.400;2023-11-22T00:04:36;6.10;;;5.00;;
2111;SDS011;1062;52.538;13.400;2023-11-22T00:07:02;7.93;;;6.03;;
2111;SDS011;1062;52.538;13.400;2023-11-22T00:09:27;6.77;;;5.77;;
2111;SDS011;1062;52.538;13.400;2023-11-22T00:11:53;8.00;;;5.50;;
2111;SDS011;1062;52.538;13.400;2023-11-22T00:14:18;8.27;;;5.10;;
2111;SDS011;1062;52.538;13.400;2023-11-22T00:16:44;6.07;;;4.93;;
2111;SDS011;1062;52.538;13.400;2023-11-22T00:19:10;4.77;;;4.23;;
2111;SDS011;1062;52.538;13.400;2023-11-22T00:21:35;6.30;;;4.50;;
2111;SDS011;1062;52.538;13.400;2023-11-22T00:24:01;7.03;;;4.63;;
2111;SDS011;1062;52.538;13.400;2023-11-22T00:26:27;9.43;;;5.00;;
2111;SDS011;1062;52.538;13.400;2023-11-22T00:28:52;5.47;;;3.97;;
2111;SDS011;1062;52.538;13.400;2023-11-22T00:31:18;6.20;;;4.90;;
2111;SDS011;1062;52.538;13.400;2023-11-22T00:33:44;7.43;;;5.50;;
2111;SDS011;1062;52.538;13.400;2023-11-22T00:36:10;7.77;;;4.27;;
2111;SDS011;1062;52.538;13.400;2023-11-22T00:38:35;7.00;;;5.07;;
2111;SDS011;1062;52.538;13.400;2023-11-22T00:41:02;4.83;;;4.33;;
2111;SDS011;1062;52.538;13.400;2023-11-22T00:43:28;8.20;;;4.47;;
2111;SDS011;1062;52.538;13.400;2023-11-22T00:45:53;7.50;;;4.97;;
2111;SDS011;1062;52.538;13.400;2023-11-22T00:48:19;8.33;;;5.70;;
2111;SDS011;1062;52.538;13.400;2023-11-22T00:50:45;8.70;;;4.70;;
2111;SDS011;1062;52.538;13.400;2023-11-22T00:53:10;8.83;;;4.23;;
2111;SDS011;1062;52.538;13.400;2023-11-22T00:55:36;9.27;;;5.73;;
2111;SDS011;1062;52.538;13.400;2023-11-22T00:58:01;8.23;;;4.90;;
2111;SDS011;1062;52.538;13.400;2023-11-22T01:00:29;9.27;;;5.77;;
2111;SDS011;1062;52.538;13.400;2023-11-22T01:02:55;5.63;;;4.50;;
2111;SDS011;1062;52.538;13.400;2023-11-22T01:05:21;9.00;;;6.00;;
2111;SDS011;1062;52.538;13.400;2023-11-22T01:07:48;7.07;;;5.33;;
2111;SDS011;1062;52.538;13.400;2023-11-22T01:10:13;10.87;;;6.23;;
2111;SDS011;1062;52.538;13.400;2023-11-22T01:12:40;9.23;;;4.77;;
2111;SDS011;1062;52.538;13.400;2023-11-22T01:15:06;6.73;;;5.40;;
2111;SDS011;1062;52.538;13.400;2023-11-22T01:17:33;8.17;;;4.80;;
2111;SDS011;1062;52.538;13.400;2023-11-22T01:19:59;7.30;;;5.50;;
2111;SDS011;1062;52.538;13.400;2023-11-22T01:22:25;9.43;;;5.97;;
2111;SDS011;1062;52.538;13.400;2023-11-22T01:24:51;9.80;;;5.50;;
2111;SDS011;1062;52.538;13.400;2023-11-22T01:27:16;8.43;;;5.27;;
2111;SDS011;1062;52.538;13.400;2023-11-22T01:29:42;7.63;;;5.53;;
2111;SDS011;1062;52.538;13.400;2023-11-22T01:32:07;9.87;;;5.60;;
2111;SDS011;1062;52.538;13.400;2023-11-22T01:34:34;6.07;;;5.30;;
2111;SDS011;1062;52.538;13.400;2023-11-22T01:37:00;10.30;;;6.10;;
2111;SDS011;1062;52.538;13.400;2023-11-22T01:39:25;6.87;;;5.37;;
2111;SDS011;1062;52.538;13.400;2023-11-22T01:41:51;7.87;;;5.03;;
2111;SDS011;1062;52.538;13.400;2023-11-22T01:44:17;8.73;;;5.70;;
2111;SDS011;1062;52.538;13.400;2023-11-22T01:46:43;8.90;;;6.17;;
2111;SDS011;1062;52.538;13.400;2023-11-22T01:49:09;9.53;;;5.93;;
2111;SDS011;1062;52.538;13.400;2023-11-22T01:51:36;6.70;;;6.10;;
2111;SDS011;1062;52.538;13.400;2023-11-22T01:54:03;9.40;;;5.60;;
2111;SDS011;1062;52.538;13.400;2023-11-22T01:56:31;8.87;;;6.73;;
2111;SDS011;1062;52.538;13.400;2023-11-22T01:58:57;8.63;;;5.73;;
2111;SDS011;1062;52.538;13.400;2023-11-22T02:01:25;8.70;;;5.80;;
2111;SDS011;1062;52.538;13.400;2023-11-22T02:03:51;8.77;;;5.73;;
2111;SDS011;1062;52.538;13.400;2023-11-22T02:06:18;9.90;;;6.27;;
2111;SDS011;1062;52.538;13.400;2023-11-22T02:08:46;9.97;;;6.60;;
2111;SDS011;1062;52.538;13.400;2023-11-22T02:11:12;5.77;;;5.20;;
2111;SDS011;1062;52.538;13.400;2023-11-22T02:13:37;6.17;;;5.27;;
2111;SDS011;1062;52.538;13.400;2023-11-22T02:16:03;9.33;;;5.80;;
2111;SDS011;1062;52.538;13.400;2023-11-22T02:18:29;9.47;;;5.63;;
2111;SDS011;1062;52.538;13.400;2023-11-22T02:20:56;7.13;;;5.00;;
2111;SDS011;1062;52.538;13.400;2023-11-22T02:23:21;11.27;;;5.77;;
2111;SDS011;1062;52.538;13.400;2023-11-22T02:25:47;11.03;;;6.10;;
2111;SDS011;1062;52.538;13.400;2023-11-22T02:28:13;9.23;;;5.07;;
2111;SDS011;1062;52.538;13.400;2023-11-22T02:30:39;8.57;;;6.83;;
2111;SDS011;1062;52.538;13.400;2023-11-22T02:33:05;7.33;;;5.73;;
2111;SDS011;1062;52.538;13.400;2023-11-22T02:35:31;6.70;;;4.93;;
2111;SDS011;1062;52.538;13.400;2023-11-22T02:37:57;6.00;;;5.40;;
2111;SDS011;1062;52.538;13.400;2023-11-22T02:40:24;7.03;;;4.90;;
2111;SDS011;1062;52.538;13.400;2023-11-22T02:42:50;7.40;;;5.57;;
2111;SDS011;1062;52.538;13.400;2023-11-22T02:45:19;6.50;;;5.50;;
2111;SDS011;1062;52.538;13.400;2023-11-22T02:47:50;9.47;;;5.37;;
2111;SDS011;1062;52.538;13.400;2023-11-22T02:50:17;8.33;;;5.13;;
2111;SDS011;1062;52.538;13.400;2023-11-22T02:52:43;4.60;;;4.20;;
2111;SDS011;1062;52.538;13.400;2023-11-22T02:55:09;5.70;;;5.10;;
2111;SDS011;1062;52.538;13.400;2023-11-22T02:57:38;8.27;;;5.63;;
2111;SDS011;1062;52.538;13.400;2023-11-22T03:00:07;6.97;;;5.13;;
2111;SDS011;1062;52.538;13.400;2023-11-22T03:02:36;7.90;;;5.13;;
2111;SDS011;1062;52.538;13.400;2023-11-22T03:05:02;6.13;;;4.40;;
2111;SDS011;1062;52.538;13.400;2023-11-22T03:07:28;7.27;;;5.33;;
2111;SDS011;1062;52.538;13.400;2023-11-22T03:09:55;8.90;;;5.00;;
2111;SDS011;1062;52.538;13.400;2023-11-22T03:12:20;7.77;;;5.87;;
2111;SDS011;1062;52.538;13.400;2023-11-22T03:14:46;7.50;;;5.10;;
2111;SDS011;1062;52.538;13.400;2023-11-22T03:17:14;9.10;;;5.53;;
2111;SDS011;1062;52.538;13.400;2023-11-22T03:19:40;11.27;;;6.00;;
2111;SDS011;1062;52.538;13.400;2023-11-22T03:22:06;7.33;;;5.60;;
2111;SDS011;1062;52.538;13.400;2023-11-22T03:24:32;9.00;;;6.77;;
2111;SDS011;1062;52.538;13.400;2023-11-22T03:27:03;11.40;;;5.57;;
2111;SDS011;1062;52.538;13.400;2023-11-22T03:29:29;6.20;;;4.90;;
2111;SDS011;1062;52.538;13.400;2023-11-22T03:31:55;8.90;;;5.47;;
2111;SDS011;1062;52.538;13.400;2023-11-22T03:34:20;8.90;;;5.73;;
2111;SDS011;1062;52.538;13.400;2023-11-22T03:36:46;8.87;;;4.40;;
2111;SDS011;1062;52.538;13.400;2023-11-22T03:39:12;11.50;;;6.13;;
2111;SDS011;1062;52.538;13.400;2023-11-22T03:41:39;11.37;;;7.10;;
2111;SDS011;1062;52.538;13.400;2023-11-22T03:44:05;9.93;;;6.43;;
2111;SDS011;1062;52.538;13.400;2023-11-22T03:46:33;7.70;;;5.07;;
2111;SDS011;1062;52.538;13.400;2023-11-22T03:49:05;7.50;;;5.10;;
2111;SDS011;1062;52.538;13.400;2023-11-22T03:51:34;10.20;;;6.77;;
2111;SDS011;1062;52.538;13.400;2023-11-22T03:54:01;6.57;;;5.37;;
2111;SDS011;1062;52.538;13.400;2023-11-22T03:56:27;10.67;;;6.70;;
2111;SDS011;1062;52.538;13.400;2023-11-22T03:58:54;10.70;;;6.10;;
2111;SDS011;1062;52.538;13.400;2023-11-22T04:01:20;6.50;;;5.50;;
2111;SDS011;1062;52.538;13.400;2023-11-22T04:03:46;13.27;;;7.40;;
2111;SDS011;1062;52.538;13.400;2023-11-22T04:06:13;9.67;;;6.50;;
2111;SDS011;1062;52.538;13.400;2023-11-22T04:08:40;7.50;;;5.50;;
2111;SDS011;1062;52.538;13.400;2023-11-22T04:11:08;11.67;;;6.40;;
2111;SDS011;1062;52.538;13.400;2023-11-22T04:13:35;8.33;;;5.87;;
2111;SDS011;1062;52.538;13.400;2023-11-22T04:16:01;8.87;;;5.70;;
2111;SDS011;1062;52.538;13.400;2023-11-22T04:18:26;9.00;;;6.50;;
2111;SDS011;1062;52.538;13.400;2023-11-22T04:20:52;10.40;;;6.63;;
2111;SDS011;1062;52.538;13.400;2023-11-22T04:23:18;9.83;;;5.20;;
2111;SDS011;1062;52.538;13.400;2023-11-22T04:25:43;9.13;;;5.50;;
2111;SDS011;1062;52.538;13.400;2023-11-22T04:28:09;9.20;;;6.30;;
2111;SDS011;1062;52.538;13.400;2023-11-22T04:30:35;8.97;;;6.23;;
2111;SDS011;1062;52.538;13.400;2023-11-22T04:33:01;7.27;;;5.60;;
2111;SDS011;1062;52.538;13.400;2023-11-22T04:35:27;10.23;;;6.53;;
2111;SDS011;1062;52.538;13.400;2023-11-22T04:37:53;8.30;;;6.00;;
2111;SDS011;1062;52.538;13.400;2023-11-22T04:40:21;7.70;;;6.70;;
2111;SDS011;1062;52.538;13.400;2023-11-22T04:42:46;10.77;;;6.70;;
2111;SDS011;1062;52.538;13.400;2023-11-22T04:45:13;9.60;;;5.90;;
2111;SDS011;1062;52.538;13.400;2023-11-22T04:47:39;11.37;;;7.37;;
2111;SDS011;1062;52.538;13.400;2023-11-22T04:50:05;16.30;;;6.70;;
2111;SDS011;1062;52.538;13.400;2023-11-22T04:52:31;5.90;;;5.30;;
2111;SDS011;1062;52.538;13.400;2023-11-22T04:54:57;9.60;;;5.53;;
2111;SDS011;1062;52.538;13.400;2023-11-22T04:57:23;9.23;;;6.23;;
2111;SDS011;1062;52.538;13.400;2023-11-22T04:59:48;13.63;;;6.23;;
2111;SDS011;1062;52.538;13.400;2023-11-22T05:02:14;6.43;;;4.90;;
2111;SDS011;1062;52.538;13.400;2023-11-22T05:04:40;9.50;;;6.67;;
2111;SDS011;1062;52.538;13.400;2023-11-22T05:07:07;8.60;;;6.30;;
2111;SDS011;1062;52.538;13.400;2023-11-22T05:09:32;7.10;;;4.90;;
2111;SDS011;1062;52.538;13.400;2023-11-22T05:11:58;9.63;;;7.00;;
2111;SDS011;1062;52.538;13.400;2023-11-22T05:14:24;7.40;;;6.13;;
2111;SDS011;1062;52.538;13.400;2023-11-22T05:16:49;10.90;;;5.70;;
2111;SDS011;1062;52.538;13.400;2023-11-22T05:19:15;9.40;;;5.80;;
2111;SDS011;1062;52.538;13.400;2023-11-22T05:21:41;7.83;;;5.53;;
2111;SDS011;1062;52.538;13.400;2023-11-22T05:24:07;7.90;;;6.03;;
2111;SDS011;1062;52.538;13.400;2023-11-22T05:26:32;7.97;;;6.40;;
2111;SDS011;1062;52.538;13.400;2023-11-22T05:28:58;9.13;;;6.90;;
2111;SDS011;1062;52.538;13.400;2023-11-22T05:31:24;9.17;;;6.37;;
2111;SDS011;1062;52.538;13.400;2023-11-22T05:33:50;8.27;;;5.30;;
2111;SDS011;1062;52.538;13.400;2023-11-22T05:36:15;12.07;;;6.23;;
2111;SDS011;1062;52.538;13.400;2023-11-22T05:38:41;7.80;;;5.70;;
2111;SDS011;1062;52.538;13.400;2023-11-22T05:41:07;7.60;;;6.40;;
2111;SDS011;1062;52.538;13.400;2023-11-22T05:43:33;9.27;;;5.87;;
2111;SDS011;1062;52.538;13.400;2023-11-22T05:46:01;10.97;;;7.43;;
2111;SDS011;1062;52.538;13.400;2023-11-22T05:48:28;9.00;;;5.50;;
2111;SDS011;1062;52.538;13.400;2023-11-22T05:50:53;8.53;;;6.47;;
2111;SDS011;1062;52.538;13.400;2023-11-22T05:53:19;10.43;;;6.23;;
2111;SDS011;1062;52.538;13.400;2023-11-22T05:55:46;8.87;;;6.47;;
2111;SDS011;1062;52.538;13.400;2023-11-22T05:58:13;9.00;;;6.20;;
2111;SDS011;1062;52.538;13.400;2023-11-22T06:00:45;6.73;;;6.13;;
2111;SDS011;1062;52.538;13.400;2023-11-22T06:03:12;9.97;;;5.90;;
2111;SDS011;1062;52.538;13.400;2023-11-22T06:05:39;7.60;;;6.13;;
2111;SDS011;1062;52.538;13.400;2023-11-22T06:08:05;9.30;;;5.80;;
2111;SDS011;1062;52.538;13.400;2023-11-22T06:10:31;11.00;;;6.40;;
2111;SDS011;1062;52.538;13.400;2023-11-22T06:12:57;7.70;;;6.10;;
2111;SDS011;1062;52.538;13.400;2023-11-22T06:15:22;9.40;;;5.87;;
2111;SDS011;1062;52.538;13.400;2023-11-22T06:17:48;11.60;;;6.10;;
2111;SDS011;1062;52.538;13.400;2023-11-22T06:20:14;10.00;;;6.83;;
2111;SDS011;1062;52.538;13.400;2023-11-22T06:22:40;6.20;;;5.60;;
2111;SDS011;1062;52.538;13.400;2023-11-22T06:27:33;6.73;;;5.27;;
2111;SDS011;1062;52.538;13.400;2023-11-22T06:29:59;8.90;;;6.80;;
2111;SDS011;1062;52.538;13.400;2023-11-22T06:32:24;9.70;;;6.60;;
2111;SDS011;1062;52.538;13.400;2023-11-22T06:34:50;8.03;;;6.10;;
2111;SDS011;1062;52.538;13.400;2023-11-22T06:37:16;10.37;;;7.00;;
2111;SDS011;1062;52.538;13.400;2023-11-22T06:39:42;11.40;;;6.73;;
2111;SDS011;1062;52.538;13.400;2023-11-22T06:42:07;8.63;;;5.40;;
2111;SDS011;1062;52.538;13.400;2023-11-22T06:44:33;12.23;;;7.53;;
2111;SDS011;1062;52.538;13.400;2023-11-22T06:46:59;11.03;;;6.63;;
2111;SDS011;1062;52.538;13.400;2023-11-22T06:49:25;11.33;;;7.10;;
2111;SDS011;1062;52.538;13.400;2023-11-22T06:51:50;9.53;;;6.77;;
2111;SDS011;1062;52.538;13.400;2023-11-22T06:54:18;9.77;;;7.90;;
2111;SDS011;1062;52.538;13.400;2023-11-22T06:56:46;8.97;;;6.50;;
2111;SDS011;1062;52.538;13.400;2023-11-22T06:59:12;8.47;;;6.17;;
2111;SDS011;1062;52.538;13.400;2023-11-22T07:01:38;8.30;;;6.07;;
2111;SDS011;1062;52.538;13.400;2023-11-22T07:04:04;11.87;;;7.23;;
2111;SDS011;1062;52.538;13.400;2023-11-22T07:06:31;8.93;;;6.77;;
2111;SDS011;1062;52.538;13.400;2023-11-22T07:08:57;11.97;;;6.70;;
2111;SDS011;1062;52.538;13.400;2023-11-22T07:11:24;11.10;;;7.80;;
2111;SDS011;1062;52.538;13.400;2023-11-22T07:13:51;11.13;;;8.33;;
2111;SDS011;1062;52.538;13.400;2023-11-22T07:16:17;9.40;;;7.20;;
2111;SDS011;1062;52.538;13.400;2023-11-22T07:18:44;13.87;;;7.67;;
2111;SDS011;1062;52.538;13.400;2023-11-22T07:21:10;13.77;;;7.60;;
2111;SDS011;1062;52.538;13.400;2023-11-22T07:23:37;9.17;;;6.93;;
2111;SDS011;1062;52.538;13.400;2023-11-22T07:26:03;10.17;;;6.93;;
2111;SDS011;1062;52.538;13.400;2023-11-22T07:28:28;11.30;;;7.23;;
2111;SDS011;1062;52.538;13.400;2023-11-22T07:30:55;13.30;;;7.57;;
2111;SDS011;1062;52.538;13.400;2023-11-22T07:33:21;10.57;;;8.03;;
2111;SDS011;1062;52.538;13.400;2023-11-22T07:35:47;10.50;;;7.50;;
2111;SDS011;1062;52.538;13.400;2023-11-22T07:38:13;12.20;;;8.00;;
2111;SDS011;1062;52.538;13.400;2023-11-22T07:40:39;11.73;;;8.37;;
2111;SDS011;1062;52.538;13.400;2023-11-22T07:43:06;14.27;;;8.73;;
2111;SDS011;1062;52.538;13.400;2023-11-22T07:45:32;11.10;;;8.90;;
2111;SDS011;1062;52.538;13.400;2023-11-22T07:47:58;11.43;;;7.63;;
2111;SDS011;1062;52.538;13.400;2023-11-22T07:50:27;20.40;;;7.80;;
2111;SDS011;1062;52.538;13.400;2023-11-22T07:52:54;12.60;;;8.50;;
2111;SDS011;1062;52.538;13.400;2023-11-22T07:55:20;12.30;;;7.43;;
2111;SDS011;1062;52.538;13.400;2023-11-22T07:57:48;10.53;;;8.43;;
2111;SDS011;1062;52.538;13.400;2023-11-22T08:00:15;9.23;;;6.90;;
2111;SDS011;1062;52.538;13.400;2023-11-22T08:02:44;10.60;;;7.00;;
2111;SDS011;1062;52.538;13.400;2023-11-22T08:05:12;13.80;;;8.83;;
2111;SDS011;1062;52.538;13.400;2023-11-22T08:07:40;25.83;;;15.57;;
2111;SDS011;1062;52.538;13.400;2023-11-22T08:10:09;11.10;;;8.57;;
2111;SDS011;1062;52.538;13.400;2023-11-22T08:12:43;15.17;;;9.27;;
2111;SDS011;1062;52.538;13.400;2023-11-22T08:15:14;13.10;;;9.13;;
2111;SDS011;1062;52.538;13.400;2023-11-22T08:17:41;13.00;;;7.50;;
2111;SDS011;1062;52.538;13.400;2023-11-22T08:20:08;9.10;;;7.10;;
2111;SDS011;1062;52.538;13.400;2023-11-22T08:22:38;10.90;;;8.03;;
2111;SDS011;1062;52.538;13.400;2023-11-22T08:25:05;12.73;;;7.87;;
2111;SDS011;1062;52.538;13.400;2023-11-22T08:27:33;9.43;;;7.37;;
2111;SDS011;1062;52.538;13.400;2023-11-22T08:29:59;14.00;;;8.07;;
2111;SDS011;1062;52.538;13.400;2023-11-22T08:32:29;10.20;;;8.13;;
2111;SDS011;1062;52.538;13.400;2023-11-22T08:34:56;10.20;;;7.00;;
2111;SDS011;1062;52.538;13.400;2023-11-22T08:37:22;9.40;;;7.50;;
2111;SDS011;1062;52.538;13.400;2023-11-22T08:39:47;8.70;;;6.80;;
2111;SDS011;1062;52.538;13.400;2023-11-22T08:42:14;9.37;;;8.43;;
2111;SDS011;1062;52.538;13.400;2023-11-22T08:44:40;15.63;;;6.83;;
2111;SDS011;1062;52.538;13.400;2023-11-22T08:47:06;7.90;;;7.03;;
2111;SDS011;1062;52.538;13.400;2023-11-22T08:49:33;14.97;;;7.60;;
2111;SDS011;1062;52.538;13.400;2023-11-22T08:51:59;10.57;;;6.60;;
2111;SDS011;1062;52.538;13.400;2023-11-22T08:54:25;13.57;;;7.77;;
2111;SDS011;1062;52.538;13.400;2023-11-22T08:56:54;9.90;;;7.43;;
2111;SDS011;1062;52.538;13.400;2023-11-22T08:59:23;10.77;;;7.30;;
2111;SDS011;1062;52.538;13.400;2023-11-22T09:01:49;9.20;;;7.00;;
2111;SDS011;1062;52.538;13.400;2023-11-22T09:04:14;9.40;;;7.17;;
2111;SDS011;1062;52.538;13.400;2023-11-22T09:06:41;8.13;;;6.23;;
2111;SDS011;1062;52.538;13.400;2023-11-22T09:09:07;10.37;;;7.27;;
2111;SDS011;1062;52.538;13.400;2023-11-22T09:11:33;10.90;;;7.10;;
2111;SDS011;1062;52.538;13.400;2023-11-22T09:13:59;9.80;;;7.23;;
2111;SDS011;1062;52.538;13.400;2023-11-22T09:16:34;9.27;;;7.27;;
2111;SDS011;1062;52.538;13.400;2023-11-22T09:19:00;8.13;;;7.33;;
2111;SDS011;1062;52.538;13.400;2023-11-22T09:21:26;7.07;;;5.70;;
2111;SDS011;1062;52.538;13.400;2023-11-22T09:23:52;10.10;;;7.17;;
2111;SDS011;1062;52.538;13.400;2023-11-22T09:26:17;9.00;;;7.07;;
2111;SDS011;1062;52.538;13.400;2023-11-22T09:28:43;8.70;;;6.10;;
2111;SDS011;1062;52.538;13.400;2023-11-22T09:31:09;9.33;;;6.10;;
2111;SDS011;1062;52.538;13.400;2023-11-22T09:33:38;7.83;;;7.00;;
2111;SDS011;1062;52.538;13.400;2023-11-22T09:36:03;7.00;;;6.30;;
2111;SDS011;1062;52.538;13.400;2023-11-22T09:38:29;8.73;;;6.40;;
2111;SDS011;1062;52.538;13.400;2023-11-22T09:40:55;8.33;;;6.50;;
2111;SDS011;1062;52.538;13.400;2023-11-22T09:43:21;7.70;;;5.90;;
2111;SDS011;1062;52.538;13.400;2023-11-22T09:45:49;8.63;;;6.10;;
2111;SDS011;1062;52.538;13.400;2023-11-22T09:48:20;8.37;;;6.67;;
2111;SDS011;1062;52.538;13.400;2023-11-22T09:56:02;9.67;;;6.03;;
2111;SDS011;1062;52.538;13.400;2023-11-22T09:58:32;6.67;;;5.47;;
2111;SDS011;1062;52.538;13.400;2023-11-22T10:00:59;10.17;;;6.20;;
2111;SDS011;1062;52.538;13.400;2023-11-22T10:03:26;10.00;;;7.10;;
2111;SDS011;1062;52.538;13.400;2023-11-22T10:05:53;9.00;;;5.20;;
2111;SDS011;1062;52.538;13.400;2023-11-22T10:08:21;10.73;;;5.90;;
2111;SDS011;1062;52.538;13.400;2023-11-22T10:10:48;7.70;;;6.00;;
2111;SDS011;1062;52.538;13.400;2023-11-22T10:13:16;11.37;;;6.10;;
2111;SDS011;1062;52.538;13.400;2023-11-22T10:15:45;9.53;;;6.33;;
2111;SDS011;1062;52.538;13.400;2023-11-22T10:18:12;7.80;;;5.27;;
2111;SDS011;1062;52.538;13.400;2023-11-22T10:20:39;8.70;;;5.97;;
2111;SDS011;1062;52.538;13.400;2023-11-22T10:23:09;8.87;;;6.30;;
2111;SDS011;1062;52.538;13.400;2023-11-22T10:25:44;5.80;;;5.30;;
2111;SDS011;1062;52.538;13.400;2023-11-22T10:28:12;10.93;;;5.57;;
2111;SDS011;1062;52.538;13.400;2023-11-22T10:30:38;6.93;;;5.70;;
2111;SDS011;1062;52.538;13.400;2023-11-22T10:33:05;7.60;;;6.87;;
2111;SDS011;1062;52.538;13.400;2023-11-22T10:35:31;8.60;;;5.63;;
2111;SDS011;1062;52.538;13.400;2023-11-22T10:37:59;10.13;;;6.73;;
2111;SDS011;1062;52.538;13.400;2023-11-22T10:40:28;7.30;;;5.30;;
2111;SDS011;1062;52.538;13.400;2023-11-22T10:42:54;7.00;;;5.37;;
2111;SDS011;1062;52.538;13.400;2023-11-22T10:45:21;9.97;;;6.47;;
2111;SDS011;1062;52.538;13.400;2023-11-22T10:47:49;9.30;;;5.93;;
2111;SDS011;1062;52.538;13.400;2023-11-22T10:50:20;9.10;;;6.63;;
2111;SDS011;1062;52.538;13.400;2023-11-22T10:52:47;9.10;;;6.83;;
2111;SDS011;1062;52.538;13.400;2023-11-22T10:55:20;7.03;;;5.67;;
2111;SDS011;1062;52.538;13.400;2023-11-22T10:57:51;6.77;;;5.47;;
2111;SDS011;1062;52.538;13.400;2023-11-22T11:00:26;6.93;;;5.73;;
2111;SDS011;1062;52.538;13.400;2023-11-22T11:02:58;9.37;;;6.23;;
2111;SDS011;1062;52.538;13.400;2023-11-22T11:05:27;14.40;;;7.87;;
2111;SDS011;1062;52.538;13.400;2023-11-22T11:08:00;7.93;;;6.00;;
2111;SDS011;1062;52.538;13.400;2023-11-22T11:10:34;9.40;;;6.40;;
2111;SDS011;1062;52.538;13.400;2023-11-22T11:13:00;8.97;;;6.00;;
2111;SDS011;1062;52.538;13.400;2023-11-22T11:15:26;10.83;;;6.37;;
2111;SDS011;1062;52.538;13.400;2023-11-22T11:17:53;7.63;;;6.23;;
2111;SDS011;1062;52.538;13.400;2023-11-22T11:20:21;8.07;;;5.67;;
2111;SDS011;1062;52.538;13.400;2023-11-22T11:22:48;8.20;;;6.00;;
2111;SDS011;1062;52.538;13.400;2023-11-22T11:25:15;8.20;;;5.80;;
2111;SDS011;1062;52.538;13.400;2023-11-22T11:27:44;11.03;;;7.27;;
2111;SDS011;1062;52.538;13.400;2023-11-22T11:32:58;8.13;;;6.10;;
2111;SDS011;1062;52.538;13.400;2023-11-22T11:35:39;8.17;;;6.00;;
2111;SDS011;1062;52.538;13.400;2023-11-22T11:38:11;10.17;;;6.23;;
2111;SDS011;1062;52.538;13.400;2023-11-22T11:40:39;7.53;;;6.63;;
2111;SDS011;1062;52.538;13.400;2023-11-22T11:43:06;12.00;;;5.80;;
2111;SDS011;1062;52.538;13.400;2023-11-22T11:45:36;7.13;;;6.17;;
2111;SDS011;1062;52.538;13.400;2023-11-22T11:48:12;8.73;;;6.40;;
2111;SDS011;1062;52.538;13.400;2023-11-22T11:50:39;9.50;;;6.57;;
2111;SDS011;1062;52.538;13.400;2023-11-22T11:53:04;8.03;;;5.80;;
2111;SDS011;1062;52.538;13.400;2023-11-22T11:55:30;9.50;;;6.17;;
2111;SDS011;1062;52.538;13.400;2023-11-22T11:57:56;7.40;;;5.83;;
2111;SDS011;1062;52.538;13.400;2023-11-22T12:00:22;6.63;;;5.80;;
2111;SDS011;1062;52.538;13.400;2023-11-22T12:02:49;6.63;;;5.77;;
2111;SDS011;1062;52.538;13.400;2023-11-22T12:05:15;6.80;;;5.00;;
2111;SDS011;1062;52.538;13.400;2023-11-22T12:07:45;7.87;;;6.00;;
2111;SDS011;1062;52.538;13.400;2023-11-22T12:10:10;9.97;;;6.30;;
2111;SDS011;1062;52.538;13.400;2023-11-22T12:12:36;8.80;;;6.03;;
2111;SDS011;1062;52.538;13.400;2023-11-22T12:15:02;8.97;;;5.20;;
2111;SDS011;1062;52.538;13.400;2023-11-22T12:17:28;6.77;;;4.70;;
2111;SDS011;1062;52.538;13.400;2023-11-22T12:20:08;7.37;;;5.47;;
2111;SDS011;1062;52.538;13.400;2023-11-22T12:22:46;6.60;;;4.30;;
2111;SDS011;1062;52.538;13.400;2023-11-22T12:25:13;5.17;;;4.50;;
2111;SDS011;1062;52.538;13.400;2023-11-22T12:27:42;5.77;;;4.53;;
2111;SDS011;1062;52.538;13.400;2023-11-22T12:30:22;5.20;;;4.53;;
2111;SDS011;1062;52.538;13.400;2023-11-22T12:33:00;8.10;;;4.90;;
2111;SDS011;1062;52.538;13.400;2023-11-22T12:35:29;12.07;;;6.20;;
2111;SDS011;1062;52.538;13.400;2023-11-22T12:37:58;8.80;;;7.07;;
2111;SDS011;1062;52.538;13.400;2023-11-22T12:40:24;7.77;;;5.63;;
2111;SDS011;1062;52.538;13.400;2023-11-22T12:42:53;7.37;;;5.83;;
2111;SDS011;1062;52.538;13.400;2023-11-22T12:45:19;13.97;;;5.83;;
2111;SDS011;1062;52.538;13.400;2023-11-22T12:47:49;11.20;;;6.30;;
2111;SDS011;1062;52.538;13.400;2023-11-22T12:50:34;9.30;;;6.20;;
2111;SDS011;1062;52.538;13.400;2023-11-22T12:55:42;7.60;;;4.90;;
2111;SDS011;1062;52.538;13.400;2023-11-22T12:58:13;12.20;;;6.40;;
2111;SDS011;1062;52.538;13.400;2023-11-22T13:00:39;6.07;;;4.73;;
2111;SDS011;1062;52.538;13.400;2023-11-22T13:03:08;8.47;;;5.87;;
2111;SDS011;1062;52.538;13.400;2023-11-22T13:05:37;8.67;;;5.70;;
2111;SDS011;1062;52.538;13.400;2023-11-22T13:08:08;9.60;;;6.40;;
2111;SDS011;1062;52.538;13.400;2023-11-22T13:10:47;6.37;;;5.77;;
2111;SDS011;1062;52.538;13.400;2023-11-22T13:13:23;10.70;;;5.40;;
2111;SDS011;1062;52.538;13.400;2023-11-22T13:15:50;8.17;;;5.33;;
2111;SDS011;1062;52.538;13.400;2023-11-22T13:18:16;14.83;;;6.13;;
2111;SDS011;1062;52.538;13.400;2023-11-22T13:20:42;9.93;;;5.10;;
2111;SDS011;1062;52.538;13.400;2023-11-22T13:23:08;6.97;;;4.63;;
2111;SDS011;1062;52.538;13.400;2023-11-22T13:25:34;7.63;;;5.23;;
2111;SDS011;1062;52.538;13.400;2023-11-22T13:28:00;6.57;;;4.80;;
2111;SDS011;1062;52.538;13.400;2023-11-22T13:30:26;6.33;;;4.80;;
2111;SDS011;1062;52.538;13.400;2023-11-22T13:32:52;5.50;;;4.10;;
2111;SDS011;1062;52.538;13.400;2023-11-22T13:35:21;5.40;;;4.20;;
2111;SDS011;1062;52.538;13.400;2023-11-22T13:37:47;5.53;;;4.87;;
2111;SDS011;1062;52.538;13.400;2023-11-22T13:40:14;5.37;;;4.87;;
2111;SDS011;1062;52.538;13.400;2023-11-22T13:42:42;6.87;;;4.60;;
2111;SDS011;1062;52.538;13.400;2023-11-22T13:45:11;6.87;;;4.43;;
2111;SDS011;1062;52.538;13.400;2023-11-22T13:47:42;9.17;;;4.90;;
2111;SDS011;1062;52.538;13.400;2023-11-22T13:50:15;6.67;;;4.07;;
2111;SDS011;1062;52.538;13.400;2023-11-22T13:52:50;6.83;;;4.83;;
2111;SDS011;1062;52.538;13.400;2023-11-22T13:55:16;6.20;;;4.57;;
2111;SDS011;1062;52.538;13.400;2023-11-22T13:57:47;8.37;;;5.73;;
2111;SDS011;1062;52.538;13.400;2023-11-22T14:00:24;5.77;;;4.03;;
2111;SDS011;1062;52.538;13.400;2023-11-22T14:02:55;5.80;;;3.60;;
2111;SDS011;1062;52.538;13.400;2023-11-22T14:05:25;5.20;;;3.80;;
2111;SDS011;1062;52.538;13.400;2023-11-22T14:07:51;5.30;;;3.90;;
2111;SDS011;1062;52.538;13.400;2023-11-22T14:10:19;4.50;;;4.00;;
2111;SDS011;1062;52.538;13.400;2023-11-22T14:12:47;4.93;;;3.90;;
2111;SDS011;1062;52.538;13.400;2023-11-22T14:15:16;4.93;;;4.13;;
2111;SDS011;1062;52.538;13.400;2023-11-22T14:17:42;5.67;;;4.40;;
2111;SDS011;1062;52.538;13.400;2023-11-22T14:20:09;6.20;;;4.53;;
2111;SDS011;1062;52.538;13.400;2023-11-22T14:22:36;4.80;;;3.90;;
2111;SDS011;1062;52.538;13.400;2023-11-22T14:25:02;12.00;;;7.50;;
2111;SDS011;1062;52.538;13.400;2023-11-22T14:27:32;7.33;;;5.73;;
2111;SDS011;1062;52.538;13.400;2023-11-22T14:29:58;8.50;;;5.57;;
2111;SDS011;1062;52.538;13.400;2023-11-22T14:32:25;7.67;;;6.13;;
2111;SDS011;1062;52.538;13.400;2023-11-22T14:34:50;5.47;;;4.53;;
2111;SDS011;1062;52.538;13.400;2023-11-22T14:37:18;5.60;;;4.53;;
2111;SDS011;1062;52.538;13.400;2023-11-22T14:39:44;6.30;;;4.70;;
2111;SDS011;1062;52.538;13.400;2023-11-22T14:42:10;5.73;;;5.10;;
2111;SDS011;1062;52.538;13.400;2023-11-22T14:44:36;5.63;;;4.03;;
2111;SDS011;1062;52.538;13.400;2023-11-22T14:47:02;4.37;;;3.57;;
2111;SDS011;1062;52.538;13.400;2023-11-22T14:49:38;8.70;;;4.17;;
2111;SDS011;1062;52.538;13.400;2023-11-22T14:52:04;4.77;;;4.13;;
2111;SDS011;1062;52.538;13.400;2023-11-22T14:54:29;4.37;;;3.93;;
2111;SDS011;1062;52.538;13.400;2023-11-22T14:56:55;8.50;;;4.67;;
2111;SDS011;1062;52.538;13.400;2023-11-22T14:59:25;5.50;;;4.53;;
2111;SDS011;1062;52.538;13.400;2023-11-22T15:01:51;10.43;;;4.40;;
2111;SDS011;1062;52.538;13.400;2023-11-22T15:04:17;3.87;;;3.50;;
2111;SDS011;1062;52.538;13.400;2023-11-22T15:06:43;6.80;;;4.63;;
2111;SDS011;1062;52.538;13.400;2023-11-22T15:09:10;6.40;;;4.43;;
2111;SDS011;1062;52.538;13.400;2023-11-22T15:11:40;6.10;;;4.13;;